sensor_id;sensor_type;location;lat;lon;timestamp;pressure;altitude;pressure_sealevel;temperature;humidity
68654;BME280;55636;51.108;13.622;2022-08-11T00:00:17;101089.06;;;19.75;37.49
68654;BME280;55636;51.108;13.622;2022-08-11T00:01:24;101096.63;;;19.75;37.87
68654;BME280;55636;51.108;13.622;2022-08-11T00:02:32;101095.28;;;19.72;37.41
68654;BME280;55636;51.108;13.622;2022-08-11T00:03:35;101079.09;;;19.69;37.81
68654;BME280;55636;51.108;13.622;2022-08-11T00:04:44;101093.09;;;19.69;37.58
68654;BME280;55636;51.108;13.622;2022-08-11T00:05:53;101087.78;;;19.68;37.71
68654;BME280;55636;51.108;13.622;2022-08-11T00:06:58;101084.47;;;19.66;37.68
68654;BME280;55636;51.108;13.622;2022-08-11T00:08:03;101088.41;;;19.65;37.78
68654;BME280;55636;51.108;13.622;2022-08-11T00:09:09;101082.25;;;19.63;38.07
68654;BME280;55636;51.108;13.622;2022-08-11T00:10:14;101089.84;;;19.62;38.10
68654;BME280;55636;51.108;13.622;2022-08-11T00:11:18;101092.94;;;19.60;37.75
68654;BME280;55636;51.108;13.622;2022-08-11T00:12:22;101088.47;;;19.59;38.03
68654;BME280;55636;51.108;13.622;2022-08-11T00:13:37;101086.28;;;19.56;37.83
68654;BME280;55636;51.108;13.622;2022-08-11T00:14:40;101095.81;;;19.55;38.20
68654;BME280;55636;51.108;13.622;2022-08-11T00:15:44;101086.06;;;19.53;37.86
68654;BME280;55636;51.108;13.622;2022-08-11T00:17:08;101090.00;;;19.52;37.91
68654;BME280;55636;51.108;13.622;2022-08-11T00:18:12;101095.09;;;19.50;38.29
68654;BME280;55636;51.108;13.622;2022-08-11T00:19:20;101092.28;;;19.50;38.19
68654;BME280;55636;51.108;13.622;2022-08-11T00:20:44;101090.63;;;19.49;38.26
68654;BME280;55636;51.108;13.622;2022-08-11T00:21:46;101094.53;;;19.48;38.05
68654;BME280;55636;51.108;13.622;2022-08-11T00:23:10;101095.97;;;19.45;38.36
68654;BME280;55636;51.108;13.622;2022-08-11T00:24:12;101096.81;;;19.46;38.39
68654;BME280;55636;51.108;13.622;2022-08-11T00:25:18;101094.63;;;19.42;38.33
68654;BME280;55636;51.108;13.622;2022-08-11T00:26:22;101094.06;;;19.40;38.64
68654;BME280;55636;51.108;13.622;2022-08-11T00:27:33;101098.84;;;19.40;38.29
68654;BME280;55636;51.108;13.622;2022-08-11T00:28:35;101094.69;;;19.37;38.50
68654;BME280;55636;51.108;13.622;2022-08-11T00:29:38;101102.28;;;19.37;38.34
68654;BME280;55636;51.108;13.622;2022-08-11T00:30:58;101096.13;;;19.35;38.58
68654;BME280;55636;51.108;13.622;2022-08-11T00:32:05;101099.25;;;19.33;38.38
68654;BME280;55636;51.108;13.622;2022-08-11T00:33:15;101103.16;;;19.32;38.52
68654;BME280;55636;51.108;13.622;2022-08-11T00:34:23;101104.31;;;19.31;38.59
68654;BME280;55636;51.108;13.622;2022-08-11T00:35:29;101104.31;;;19.31;38.64
68654;BME280;55636;51.108;13.622;2022-08-11T00:36:59;101102.13;;;19.28;38.71
68654;BME280;55636;51.108;13.622;2022-08-11T00:38:05;101104.09;;;19.27;38.92
68654;BME280;55636;51.108;13.622;2022-08-11T00:39:09;101112.78;;;19.26;38.79
68654;BME280;55636;51.108;13.622;2022-08-11T00:40:17;101109.97;;;19.26;38.95
68654;BME280;55636;51.108;13.622;2022-08-11T00:41:39;101112.25;;;19.24;38.49
68654;BME280;55636;51.108;13.622;2022-08-11T00:44:41;101106.72;;;19.19;38.72
68654;BME280;55636;51.108;13.622;2022-08-11T00:48:01;101108.44;;;19.15;39.53
68654;BME280;55636;51.108;13.622;2022-08-11T00:49:12;101102.28;;;19.13;39.24
68654;BME280;55636;51.108;13.622;2022-08-11T00:53:15;101102.97;;;19.04;40.40
68654;BME280;55636;51.108;13.622;2022-08-11T00:56:22;101103.34;;;18.98;40.29
68654;BME280;55636;51.108;13.622;2022-08-11T01:00:23;101108.16;;;18.92;40.64
68654;BME280;55636;51.108;13.622;2022-08-11T01:04:06;101102.97;;;18.80;40.92
68654;BME280;55636;51.108;13.622;2022-08-11T01:12:08;101105.72;;;18.61;42.33
68654;BME280;55636;51.108;13.622;2022-08-11T01:20:08;101112.44;;;18.36;41.63
68654;BME280;55636;51.108;13.622;2022-08-11T01:30:25;101107.38;;;18.03;42.27
68654;BME280;55636;51.108;13.622;2022-08-11T01:36:41;101106.41;;;17.89;42.46
68654;BME280;55636;51.108;13.622;2022-08-11T01:44:20;101108.22;;;17.69;43.19
68654;BME280;55636;51.108;13.622;2022-08-11T01:47:14;101110.53;;;17.62;43.70
68654;BME280;55636;51.108;13.622;2022-08-11T01:48:52;101110.28;;;17.58;43.57
68654;BME280;55636;51.108;13.622;2022-08-11T01:50:15;101110.56;;;17.57;43.72
68654;BME280;55636;51.108;13.622;2022-08-11T01:51:49;101108.63;;;17.52;43.19
68654;BME280;55636;51.108;13.622;2022-08-11T01:53:22;101101.66;;;17.50;43.86
68654;BME280;55636;51.108;13.622;2022-08-11T01:54:51;101106.66;;;17.47;43.59
68654;BME280;55636;51.108;13.622;2022-08-11T01:58:28;101099.16;;;17.43;43.88
68654;BME280;55636;51.108;13.622;2022-08-11T01:59:49;101103.38;;;17.40;44.39
68654;BME280;55636;51.108;13.622;2022-08-11T02:02:26;101106.75;;;17.37;44.09
68654;BME280;55636;51.108;13.622;2022-08-11T02:04:00;101108.16;;;17.35;44.50
68654;BME280;55636;51.108;13.622;2022-08-11T02:06:54;101103.44;;;17.30;43.82
68654;BME280;55636;51.108;13.622;2022-08-11T02:10:14;101100.63;;;17.30;43.92
68654;BME280;55636;51.108;13.622;2022-08-11T02:11:58;101098.97;;;17.29;43.91
68654;BME280;55636;51.108;13.622;2022-08-11T02:15:43;101096.75;;;17.26;43.84
68654;BME280;55636;51.108;13.622;2022-08-11T02:18:20;101102.94;;;17.23;43.96
68654;BME280;55636;51.108;13.622;2022-08-11T02:19:48;101099.88;;;17.19;44.10
68654;BME280;55636;51.108;13.622;2022-08-11T02:21:12;101090.63;;;17.19;44.15
68654;BME280;55636;51.108;13.622;2022-08-11T02:23:16;101096.53;;;17.17;43.81
68654;BME280;55636;51.108;13.622;2022-08-11T02:25:20;101098.50;;;17.17;43.63
68654;BME280;55636;51.108;13.622;2022-08-11T02:26:40;101101.28;;;17.17;44.18
68654;BME280;55636;51.108;13.622;2022-08-11T02:27:49;101096.00;;;17.15;44.05
68654;BME280;55636;51.108;13.622;2022-08-11T02:30:32;101095.44;;;17.13;44.14
68654;BME280;55636;51.108;13.622;2022-08-11T02:33:23;101092.06;;;17.11;44.23
68654;BME280;55636;51.108;13.622;2022-08-11T02:34:41;101100.19;;;17.12;43.96
68654;BME280;55636;51.108;13.622;2022-08-11T02:36:17;101097.66;;;17.11;43.65
68654;BME280;55636;51.108;13.622;2022-08-11T02:37:40;101096.84;;;17.10;44.00
68654;BME280;55636;51.108;13.622;2022-08-11T02:39:12;101098.81;;;17.10;43.88
68654;BME280;55636;51.108;13.622;2022-08-11T02:40:23;101104.38;;;17.10;44.18
68654;BME280;55636;51.108;13.622;2022-08-11T02:41:52;101097.13;;;17.09;43.99
68654;BME280;55636;51.108;13.622;2022-08-11T02:45:30;101104.13;;;17.06;43.92
68654;BME280;55636;51.108;13.622;2022-08-11T02:50:11;101103.28;;;17.01;44.03
68654;BME280;55636;51.108;13.622;2022-08-11T02:51:40;101107.22;;;17.00;44.14
68654;BME280;55636;51.108;13.622;2022-08-11T02:52:54;101107.53;;;16.98;44.49
68654;BME280;55636;51.108;13.622;2022-08-11T02:54:26;101098.59;;;16.96;44.12
68654;BME280;55636;51.108;13.622;2022-08-11T02:55:54;101111.97;;;16.94;44.53
68654;BME280;55636;51.108;13.622;2022-08-11T02:57:28;101109.19;;;16.94;44.51
68654;BME280;55636;51.108;13.622;2022-08-11T03:01:04;101108.09;;;16.90;44.59
68654;BME280;55636;51.108;13.622;2022-08-11T03:02:48;101111.72;;;16.90;44.17
68654;BME280;55636;51.108;13.622;2022-08-11T03:04:04;101108.09;;;16.90;44.42
68654;BME280;55636;51.108;13.622;2022-08-11T03:05:14;101117.56;;;16.89;45.14
68654;BME280;55636;51.108;13.622;2022-08-11T03:06:35;101118.72;;;16.88;44.58
68654;BME280;55636;51.108;13.622;2022-08-11T03:07:50;101114.25;;;16.87;44.80
68654;BME280;55636;51.108;13.622;2022-08-11T03:09:05;101120.13;;;16.85;45.08
68654;BME280;55636;51.108;13.622;2022-08-11T03:10:19;101116.47;;;16.85;44.90
68654;BME280;55636;51.108;13.622;2022-08-11T03:13:21;101123.47;;;16.82;45.36
68654;BME280;55636;51.108;13.622;2022-08-11T03:15:11;101130.44;;;16.79;45.25
68654;BME280;55636;51.108;13.622;2022-08-11T03:18:17;101122.66;;;16.76;45.45
68654;BME280;55636;51.108;13.622;2022-08-11T03:21:04;101127.44;;;16.71;46.26
68654;BME280;55636;51.108;13.622;2022-08-11T03:23:10;101126.88;;;16.69;45.85
68654;BME280;55636;51.108;13.622;2022-08-11T03:24:07;101125.47;;;16.66;45.89
68654;BME280;55636;51.108;13.622;2022-08-11T03:25:18;101126.06;;;16.63;46.21
68654;BME280;55636;51.108;13.622;2022-08-11T03:26:43;101128.25;;;16.61;46.06
68654;BME280;55636;51.108;13.622;2022-08-11T03:29:46;101123.78;;;16.55;46.21
68654;BME280;55636;51.108;13.622;2022-08-11T03:32:33;101119.91;;;16.51;46.49
68654;BME280;55636;51.108;13.622;2022-08-11T03:33:52;101118.50;;;16.48;46.32
68654;BME280;55636;51.108;13.622;2022-08-11T03:35:09;101116.00;;;16.46;46.79
68654;BME280;55636;51.108;13.622;2022-08-11T03:38:10;101117.69;;;16.42;47.04
68654;BME280;55636;51.108;13.622;2022-08-11T03:41:25;101125.22;;;16.37;46.57
68654;BME280;55636;51.108;13.622;2022-08-11T03:43:32;101126.63;;;16.34;46.47
68654;BME280;55636;51.108;13.622;2022-08-11T03:48:08;101123.88;;;16.29;46.58
68654;BME280;55636;51.108;13.622;2022-08-11T03:53:21;101121.63;;;16.21;47.46
68654;BME280;55636;51.108;13.622;2022-08-11T03:54:42;101117.16;;;16.20;47.32
68654;BME280;55636;51.108;13.622;2022-08-11T03:56:31;101115.75;;;16.17;46.91
68654;BME280;55636;51.108;13.622;2022-08-11T03:59:42;101110.75;;;16.14;47.22
68654;BME280;55636;51.108;13.622;2022-08-11T04:12:48;101108.84;;;15.99;47.27
68654;BME280;55636;51.108;13.622;2022-08-11T04:16:07;101110.47;;;15.95;47.36
68654;BME280;55636;51.108;13.622;2022-08-11T04:20:27;101103.81;;;15.91;47.41
68654;BME280;55636;51.108;13.622;2022-08-11T04:21:56;101106.88;;;15.89;47.75
68654;BME280;55636;51.108;13.622;2022-08-11T04:23:54;101099.91;;;15.87;47.42
68654;BME280;55636;51.108;13.622;2022-08-11T04:28:48;101112.44;;;15.89;47.63
68654;BME280;55636;51.108;13.622;2022-08-11T04:30:06;101112.44;;;15.89;47.93
68654;BME280;55636;51.108;13.622;2022-08-11T04:34:36;101118.03;;;15.94;47.54
68654;BME280;55636;51.108;13.622;2022-08-11T04:36:18;101114.13;;;15.95;47.69
68654;BME280;55636;51.108;13.622;2022-08-11T04:38:04;101116.63;;;15.97;47.89
68654;BME280;55636;51.108;13.622;2022-08-11T04:39:21;101118.03;;;16.00;48.08
68654;BME280;55636;51.108;13.622;2022-08-11T04:42:18;101119.69;;;16.06;47.49
68654;BME280;55636;51.108;13.622;2022-08-11T04:44:19;101114.94;;;16.11;47.41
68654;BME280;55636;51.108;13.622;2022-08-11T04:49:57;101114.06;;;16.31;47.62
68654;BME280;55636;51.108;13.622;2022-08-11T04:53:44;101118.22;;;16.50;47.12
68654;BME280;55636;51.108;13.622;2022-08-11T04:57:16;101118.22;;;16.70;46.98
68654;BME280;55636;51.108;13.622;2022-08-11T05:00:11;101111.16;;;16.88;47.21
68654;BME280;55636;51.108;13.622;2022-08-11T05:04:34;101114.13;;;17.18;46.85
68654;BME280;55636;51.108;13.622;2022-08-11T05:06:25;101111.22;;;17.33;46.41
68654;BME280;55636;51.108;13.622;2022-08-11T05:09:15;101120.59;;;17.58;45.68
68654;BME280;55636;51.108;13.622;2022-08-11T05:13:06;101119.81;;;17.92;45.23
68654;BME280;55636;51.108;13.622;2022-08-11T05:14:38;101115.47;;;18.05;45.06
68654;BME280;55636;51.108;13.622;2022-08-11T05:16:09;101113.66;;;18.19;44.98
68654;BME280;55636;51.108;13.622;2022-08-11T05:17:36;101122.22;;;18.33;44.66
68654;BME280;55636;51.108;13.622;2022-08-11T05:18:57;101115.13;;;18.46;44.16
68654;BME280;55636;51.108;13.622;2022-08-11T05:20:20;101114.97;;;18.61;44.27
68654;BME280;55636;51.108;13.622;2022-08-11T05:21:52;101122.63;;;18.75;43.98
68654;BME280;55636;51.108;13.622;2022-08-11T05:23:14;101121.09;;;18.88;43.54
68654;BME280;55636;51.108;13.622;2022-08-11T05:24:43;101121.19;;;19.02;43.38
68654;BME280;55636;51.108;13.622;2022-08-11T05:26:08;101125.78;;;19.17;43.09
68654;BME280;55636;51.108;13.622;2022-08-11T05:31:11;101132.19;;;19.60;41.63
68654;BME280;55636;51.108;13.622;2022-08-11T05:32:35;101124.97;;;19.73;41.61
68654;BME280;55636;51.108;13.622;2022-08-11T05:34:17;101130.34;;;19.89;41.47
68654;BME280;55636;51.108;13.622;2022-08-11T05:35:48;101127.59;;;20.03;40.94
68654;BME280;55636;51.108;13.622;2022-08-11T05:37:05;101132.53;;;20.11;40.59
68654;BME280;55636;51.108;13.622;2022-08-11T05:38:29;101133.16;;;20.22;40.49
68654;BME280;55636;51.108;13.622;2022-08-11T05:40:08;101125.63;;;20.36;40.56
68654;BME280;55636;51.108;13.622;2022-08-11T05:41:31;101133.22;;;20.50;40.39
68654;BME280;55636;51.108;13.622;2022-08-11T05:43:00;101125.97;;;20.63;39.97
68654;BME280;55636;51.108;13.622;2022-08-11T05:44:23;101127.97;;;20.76;39.66
68654;BME280;55636;51.108;13.622;2022-08-11T05:46:02;101129.66;;;20.91;39.82
68654;BME280;55636;51.108;13.622;2022-08-11T05:47:24;101130.78;;;21.04;39.44
68654;BME280;55636;51.108;13.622;2022-08-11T05:48:46;101137.22;;;21.18;39.06
68654;BME280;55636;51.108;13.622;2022-08-11T05:50:13;101134.41;;;21.32;38.68
68654;BME280;55636;51.108;13.622;2022-08-11T05:51:41;101135.50;;;21.45;38.70
68654;BME280;55636;51.108;13.622;2022-08-11T05:53:14;101137.16;;;21.60;38.66
68654;BME280;55636;51.108;13.622;2022-08-11T05:54:47;101139.94;;;21.74;38.30
68654;BME280;55636;51.108;13.622;2022-08-11T05:56:09;101135.69;;;21.85;37.58
68654;BME280;55636;51.108;13.622;2022-08-11T05:57:24;101141.91;;;21.96;37.84
68654;BME280;55636;51.108;13.622;2022-08-11T05:58:51;101137.34;;;22.09;37.53
68654;BME280;55636;51.108;13.622;2022-08-11T06:00:05;101135.16;;;22.20;37.15
68654;BME280;55636;51.108;13.622;2022-08-11T06:01:13;101144.97;;;22.31;37.22
68654;BME280;55636;51.108;13.622;2022-08-11T06:02:22;101140.25;;;22.41;36.96
68654;BME280;55636;51.108;13.622;2022-08-11T06:03:27;101129.19;;;22.53;36.88
68654;BME280;55636;51.108;13.622;2022-08-11T06:04:30;101141.31;;;22.62;36.92
68654;BME280;55636;51.108;13.622;2022-08-11T06:05:35;101141.03;;;22.72;36.56
68654;BME280;55636;51.108;13.622;2022-08-11T06:07:08;101144.28;;;22.88;36.59
68654;BME280;55636;51.108;13.622;2022-08-11T06:08:12;101141.50;;;22.97;36.23
68654;BME280;55636;51.108;13.622;2022-08-11T06:09:21;101140.06;;;23.09;35.79
68654;BME280;55636;51.108;13.622;2022-08-11T06:10:33;101136.59;;;23.20;35.97
68654;BME280;55636;51.108;13.622;2022-08-11T06:11:41;101137.09;;;23.31;35.70
68654;BME280;55636;51.108;13.622;2022-08-11T06:12:51;101140.13;;;23.44;35.44
68654;BME280;55636;51.108;13.622;2022-08-11T06:13:55;101133.84;;;23.56;35.47
68654;BME280;55636;51.108;13.622;2022-08-11T06:15:10;101140.50;;;23.68;34.89
68654;BME280;55636;51.108;13.622;2022-08-11T06:16:13;101132.84;;;23.78;34.76
68654;BME280;55636;51.108;13.622;2022-08-11T06:17:24;101140.31;;;23.91;34.58
68654;BME280;55636;51.108;13.622;2022-08-11T06:18:46;101136.47;;;24.04;34.62
68654;BME280;55636;51.108;13.622;2022-08-11T06:19:58;101138.59;;;24.16;34.37
68654;BME280;55636;51.108;13.622;2022-08-11T06:21:09;101145.25;;;24.29;34.19
68654;BME280;55636;51.108;13.622;2022-08-11T06:22:12;101140.09;;;24.40;33.87
68654;BME280;55636;51.108;13.622;2022-08-11T06:23:22;101151.50;;;24.52;33.62
68654;BME280;55636;51.108;13.622;2022-08-11T06:24:25;101144.66;;;24.62;33.36
68654;BME280;55636;51.108;13.622;2022-08-11T06:25:32;101148.75;;;24.74;33.02
68654;BME280;55636;51.108;13.622;2022-08-11T06:26:37;101142.75;;;24.84;33.39
68654;BME280;55636;51.108;13.622;2022-08-11T06:28:05;101138.56;;;24.99;32.87
68654;BME280;55636;51.108;13.622;2022-08-11T06:29:08;101142.31;;;25.12;32.63
68654;BME280;55636;51.108;13.622;2022-08-11T06:30:12;101144.25;;;25.20;32.33
68654;BME280;55636;51.108;13.622;2022-08-11T06:31:20;101143.50;;;25.32;32.43
68654;BME280;55636;51.108;13.622;2022-08-11T06:32:36;101152.06;;;25.44;32.06
68654;BME280;55636;51.108;13.622;2022-08-11T06:33:54;101142.00;;;25.56;32.30
68654;BME280;55636;51.108;13.622;2022-08-11T06:38:09;101144.34;;;25.96;31.84
68654;BME280;55636;51.108;13.622;2022-08-11T06:39:21;101142.41;;;26.09;31.54
68654;BME280;55636;51.108;13.622;2022-08-11T06:40:42;101155.44;;;26.22;31.07
68654;BME280;55636;51.108;13.622;2022-08-11T06:42:15;101145.91;;;26.39;30.86
68654;BME280;55636;51.108;13.622;2022-08-11T06:43:44;101154.59;;;26.55;30.53
68654;BME280;55636;51.108;13.622;2022-08-11T06:45:04;101153.09;;;26.70;30.33
68654;BME280;55636;51.108;13.622;2022-08-11T06:46:14;101145.78;;;26.81;29.79
68654;BME280;55636;51.108;13.622;2022-08-11T06:47:29;101155.13;;;26.94;29.74
68654;BME280;55636;51.108;13.622;2022-08-11T06:48:33;101152.63;;;27.05;29.48
68654;BME280;55636;51.108;13.622;2022-08-11T06:49:43;101144.47;;;27.16;29.59
68654;BME280;55636;51.108;13.622;2022-08-11T06:51:08;101146.16;;;27.29;29.30
68654;BME280;55636;51.108;13.622;2022-08-11T06:52:14;101144.00;;;27.39;29.02
68654;BME280;55636;51.108;13.622;2022-08-11T06:53:54;101142.06;;;27.55;29.00
68654;BME280;55636;51.108;13.622;2022-08-11T06:55:10;101150.53;;;27.68;28.59
68654;BME280;55636;51.108;13.622;2022-08-11T06:56:35;101147.28;;;27.81;28.66
68654;BME280;55636;51.108;13.622;2022-08-11T06:58:19;101147.03;;;27.99;28.42
68654;BME280;55636;51.108;13.622;2022-08-11T06:59:47;101143.03;;;28.16;28.44
68654;BME280;55636;51.108;13.622;2022-08-11T07:01:11;101142.63;;;28.30;28.17
68654;BME280;55636;51.108;13.622;2022-08-11T07:02:37;101149.16;;;28.46;28.31
68654;BME280;55636;51.108;13.622;2022-08-11T07:03:48;101141.75;;;28.58;27.52
68654;BME280;55636;51.108;13.622;2022-08-11T07:05:01;101145.69;;;28.69;27.25
68654;BME280;55636;51.108;13.622;2022-08-11T07:12:43;101144.22;;;29.43;26.71
68654;BME280;55636;51.108;13.622;2022-08-11T07:14:10;101139.25;;;29.56;26.46
68654;BME280;55636;51.108;13.622;2022-08-11T07:15:37;101147.19;;;29.66;25.99
68654;BME280;55636;51.108;13.622;2022-08-11T07:17:05;101138.44;;;29.75;25.45
68654;BME280;55636;51.108;13.622;2022-08-11T07:18:33;101139.47;;;29.86;25.84
68654;BME280;55636;51.108;13.622;2022-08-11T07:20:00;101146.59;;;29.96;25.55
68654;BME280;55636;51.108;13.622;2022-08-11T07:21:30;101142.31;;;30.06;25.24
68654;BME280;55636;51.108;13.622;2022-08-11T07:23:06;101142.56;;;30.17;25.57
68654;BME280;55636;51.108;13.622;2022-08-11T07:24:34;101146.44;;;30.28;25.25
68654;BME280;55636;51.108;13.622;2022-08-11T07:26:07;101142.94;;;30.38;25.17
68654;BME280;55636;51.108;13.622;2022-08-11T07:27:35;101150.50;;;30.50;25.00
68654;BME280;55636;51.108;13.622;2022-08-11T07:29:04;101140.13;;;30.62;24.79
68654;BME280;55636;51.108;13.622;2022-08-11T07:30:09;101140.69;;;30.71;25.00
68654;BME280;55636;51.108;13.622;2022-08-11T07:31:36;101141.72;;;30.82;25.21
68654;BME280;55636;51.108;13.622;2022-08-11T07:32:50;101145.13;;;30.91;24.86
68654;BME280;55636;51.108;13.622;2022-08-11T07:34:14;101139.53;;;30.99;24.90
68654;BME280;55636;51.108;13.622;2022-08-11T07:35:32;101133.53;;;31.07;24.46
68654;BME280;55636;51.108;13.622;2022-08-11T07:36:39;101135.72;;;31.14;24.09
68654;BME280;55636;51.108;13.622;2022-08-11T07:37:46;101137.47;;;31.22;24.28
68654;BME280;55636;51.108;13.622;2022-08-11T07:39:02;101133.94;;;31.33;24.08
68654;BME280;55636;51.108;13.622;2022-08-11T07:40:06;101130.75;;;31.38;23.86
68654;BME280;55636;51.108;13.622;2022-08-11T07:41:13;101137.41;;;31.46;23.74
68654;BME280;55636;51.108;13.622;2022-08-11T07:42:25;101135.47;;;31.53;23.74
68654;BME280;55636;51.108;13.622;2022-08-11T07:43:28;101128.56;;;31.58;23.47
68654;BME280;55636;51.108;13.622;2022-08-11T07:44:31;101131.97;;;31.64;23.22
68654;BME280;55636;51.108;13.622;2022-08-11T07:46:03;101128.38;;;31.70;23.03
68654;BME280;55636;51.108;13.622;2022-08-11T07:47:26;101135.81;;;31.79;22.79
68654;BME280;55636;51.108;13.622;2022-08-11T07:48:47;101133.41;;;31.81;22.47
68654;BME280;55636;51.108;13.622;2022-08-11T07:50:09;101127.69;;;31.84;22.76
68654;BME280;55636;51.108;13.622;2022-08-11T07:51:32;101130.66;;;31.91;22.97
68654;BME280;55636;51.108;13.622;2022-08-11T07:52:54;101130.31;;;31.97;22.93
68654;BME280;55636;51.108;13.622;2022-08-11T07:53:57;101129.97;;;32.02;22.72
68654;BME280;55636;51.108;13.622;2022-08-11T07:55:20;101126.75;;;32.07;22.36
68654;BME280;55636;51.108;13.622;2022-08-11T07:56:46;101126.84;;;32.14;22.45
68654;BME280;55636;51.108;13.622;2022-08-11T07:57:57;101132.22;;;32.19;22.52
68654;BME280;55636;51.108;13.622;2022-08-11T07:59:22;101126.13;;;32.24;22.37
68654;BME280;55636;51.108;13.622;2022-08-11T08:01:19;101125.00;;;32.33;22.54
68654;BME280;55636;51.108;13.622;2022-08-11T08:02:44;101129.56;;;32.41;22.58
68654;BME280;55636;51.108;13.622;2022-08-11T08:04:06;101125.56;;;32.49;22.34
68654;BME280;55636;51.108;13.622;2022-08-11T08:05:29;101128.91;;;32.58;22.01
68654;BME280;55636;51.108;13.622;2022-08-11T08:06:51;101122.00;;;32.63;22.10
68654;BME280;55636;51.108;13.622;2022-08-11T08:08:13;101124.56;;;32.72;22.17
68654;BME280;55636;51.108;13.622;2022-08-11T08:09:35;101114.38;;;32.78;21.96
68654;BME280;55636;51.108;13.622;2022-08-11T08:10:57;101124.25;;;32.84;21.73
68654;BME280;55636;51.108;13.622;2022-08-11T08:12:25;101112.44;;;32.89;21.75
68654;BME280;55636;51.108;13.622;2022-08-11T08:13:46;101116.16;;;32.97;22.00
68654;BME280;55636;51.108;13.622;2022-08-11T08:15:11;101111.72;;;33.03;21.97
68654;BME280;55636;51.108;13.622;2022-08-11T08:16:35;101108.50;;;33.12;21.86
68654;BME280;55636;51.108;13.622;2022-08-11T08:17:58;101105.72;;;33.19;21.69
68654;BME280;55636;51.108;13.622;2022-08-11T08:19:21;101103.72;;;33.27;21.96
68654;BME280;55636;51.108;13.622;2022-08-11T08:20:29;101106.22;;;33.36;21.70
68654;BME280;55636;51.108;13.622;2022-08-11T08:21:32;101096.44;;;33.44;21.30
68654;BME280;55636;51.108;13.622;2022-08-11T08:22:35;101096.47;;;33.51;21.31
68654;BME280;55636;51.108;13.622;2022-08-11T08:23:43;101092.00;;;33.58;21.38
68654;BME280;55636;51.108;13.622;2022-08-11T08:24:47;101092.47;;;33.67;21.14
68654;BME280;55636;51.108;13.622;2022-08-11T08:25:50;101092.06;;;33.72;21.30
68654;BME280;55636;51.108;13.622;2022-08-11T08:26:53;101089.63;;;33.81;21.00
68654;BME280;55636;51.108;13.622;2022-08-11T08:28:02;101099.06;;;33.89;21.02
68654;BME280;55636;51.108;13.622;2022-08-11T08:29:06;101095.03;;;33.97;20.75
68654;BME280;55636;51.108;13.622;2022-08-11T08:30:32;101093.78;;;34.05;20.65
68654;BME280;55636;51.108;13.622;2022-08-11T08:31:52;101089.75;;;34.14;20.24
68654;BME280;55636;51.108;13.622;2022-08-11T08:32:56;101095.09;;;34.23;20.35
68654;BME280;55636;51.108;13.622;2022-08-11T08:33:58;101084.44;;;34.27;19.78
68654;BME280;55636;51.108;13.622;2022-08-11T08:35:02;101084.03;;;34.32;20.07
68654;BME280;55636;51.108;13.622;2022-08-11T08:36:05;101082.81;;;34.36;19.94
68654;BME280;55636;51.108;13.622;2022-08-11T08:37:21;101088.97;;;34.46;19.79
68654;BME280;55636;51.108;13.622;2022-08-11T08:38:52;101078.72;;;34.52;20.07
68654;BME280;55636;51.108;13.622;2022-08-11T08:39:57;101084.47;;;34.59;19.76
68654;BME280;55636;51.108;13.622;2022-08-11T08:41:00;101090.22;;;34.66;19.94
68654;BME280;55636;51.108;13.622;2022-08-11T08:42:09;101082.44;;;34.70;20.13
68654;BME280;55636;51.108;13.622;2022-08-11T08:43:15;101086.09;;;34.78;19.94
68654;BME280;55636;51.108;13.622;2022-08-11T08:44:20;101083.63;;;34.80;19.53
68654;BME280;55636;51.108;13.622;2022-08-11T08:45:42;101081.97;;;34.83;19.54
68654;BME280;55636;51.108;13.622;2022-08-11T08:46:48;101082.41;;;34.85;19.45
68654;BME280;55636;51.108;13.622;2022-08-11T08:48:00;101077.09;;;34.87;19.38
68654;BME280;55636;51.108;13.622;2022-08-11T08:49:03;101082.81;;;34.87;19.24
68654;BME280;55636;51.108;13.622;2022-08-11T08:50:11;101073.00;;;34.84;19.32
68654;BME280;55636;51.108;13.622;2022-08-11T08:51:18;101074.63;;;34.78;19.12
68654;BME280;55636;51.108;13.622;2022-08-11T08:52:59;101076.28;;;34.68;19.03
68654;BME280;55636;51.108;13.622;2022-08-11T08:54:07;101074.66;;;34.64;19.10
68654;BME280;55636;51.108;13.622;2022-08-11T08:55:18;101075.44;;;34.57;19.26
68654;BME280;55636;51.108;13.622;2022-08-11T08:56:26;101075.03;;;34.51;19.34
68654;BME280;55636;51.108;13.622;2022-08-11T08:57:35;101077.06;;;34.44;19.31
68654;BME280;55636;51.108;13.622;2022-08-11T08:58:41;101070.13;;;34.34;18.89
68654;BME280;55636;51.108;13.622;2022-08-11T08:59:47;101068.88;;;34.28;19.02
68654;BME280;55636;51.108;13.622;2022-08-11T09:00:53;101070.91;;;34.20;19.01
68654;BME280;55636;51.108;13.622;2022-08-11T09:02:00;101081.13;;;34.10;18.88
68654;BME280;55636;51.108;13.622;2022-08-11T09:03:03;101073.34;;;34.00;18.60
68654;BME280;55636;51.108;13.622;2022-08-11T09:04:26;101070.41;;;33.89;18.83
68654;BME280;55636;51.108;13.622;2022-08-11T09:05:29;101059.78;;;33.75;18.68
68654;BME280;55636;51.108;13.622;2022-08-11T09:06:32;101059.31;;;33.69;18.85
68654;BME280;55636;51.108;13.622;2022-08-11T09:07:35;101059.72;;;33.64;19.12
68654;BME280;55636;51.108;13.622;2022-08-11T09:08:42;101058.47;;;33.58;19.17
68654;BME280;55636;51.108;13.622;2022-08-11T09:09:49;101056.34;;;33.44;18.84
68654;BME280;55636;51.108;13.622;2022-08-11T09:10:54;101065.75;;;33.37;18.98
68654;BME280;55636;51.108;13.622;2022-08-11T09:12:17;101064.41;;;33.17;18.96